createdAt,value
2023-05-01T00:02:12.373Z,99488.09
2023-05-01T00:04:42.217Z,99481.25
2023-05-01T00:07:12.166Z,99472.69
2023-05-01T00:09:44.463Z,99457.91
2023-05-01T00:12:14.631Z,99460.81
2023-05-01T00:14:44.704Z,99456.53
2023-05-01T00:17:14.533Z,99446.19
2023-05-01T00:19:44.221Z,99442.91
2023-05-01T00:22:13.896Z,99445.75
2023-05-01T00:24:48.105Z,99436.31
2023-05-01T00:27:17.829Z,99428.63
2023-05-01T00:29:47.532Z,99415.56
2023-05-01T00:32:19.679Z,99411.34
2023-05-01T00:34:49.659Z,99413.22
2023-05-01T00:37:19.800Z,99407.31
2023-05-01T00:39:52.260Z,99401.34
2023-05-01T00:42:22.031Z,99393.63
2023-05-01T00:44:51.703Z,99402.53
2023-05-01T00:47:21.660Z,99401.84
2023-05-01T00:49:52.765Z,99379.31
2023-05-01T00:52:22.558Z,99382.06
2023-05-01T00:54:55.034Z,99376.06
2023-05-01T00:57:24.918Z,99383.31
2023-05-01T00:59:54.792Z,99380.94
2023-05-01T01:02:24.876Z,99378.56
2023-05-01T01:04:54.616Z,99376.22
2023-05-01T01:07:30.361Z,99367.78
2023-05-01T01:10:10.816Z,99368.00
2023-05-01T01:12:45.175Z,99363.75
2023-05-01T01:15:21.345Z,99362.06
2023-05-01T01:17:55.859Z,99358.66
2023-05-01T01:20:33.502Z,99356.44
2023-05-01T01:23:16.861Z,99363.53
2023-05-01T01:26:07.347Z,99366.31
2023-05-01T01:29:00.820Z,99364.75
2023-05-01T01:31:36.507Z,99370.94
2023-05-01T01:34:12.924Z,99387.69
2023-05-01T01:36:45.887Z,99399.97
2023-05-01T01:39:23.062Z,99418.34
2023-05-01T01:41:54.512Z,99427.06
2023-05-01T01:44:31.932Z,99438.31
2023-05-01T01:47:02.837Z,99445.22
2023-05-01T01:49:35.832Z,99454.78
2023-05-01T01:52:06.633Z,99456.47
2023-05-01T01:54:39.229Z,99471.38
2023-05-01T01:57:10.680Z,99476.53
2023-05-01T01:59:40.441Z,99489.50
2023-05-01T02:02:11.590Z,99497.31
2023-05-01T02:04:45.323Z,99494.69
2023-05-01T02:07:15.384Z,99479.72
2023-05-01T02:09:45.819Z,99504.13
2023-05-01T02:12:16.061Z,99496.16
2023-05-01T02:14:46.149Z,99497.78
2023-05-01T02:17:16.814Z,99499.41
2023-05-01T02:19:53.462Z,99504.59
2023-05-01T02:22:25.826Z,99494.84
2023-05-01T02:24:57.475Z,99507.91
2023-05-01T02:27:31.371Z,99502.63
2023-05-01T02:30:01.200Z,99496.50
2023-05-01T02:32:32.101Z,99502.50
2023-05-01T02:35:04.463Z,99497.25
2023-05-01T02:37:34.616Z,99491.06
2023-05-01T02:40:07.639Z,99484.91
2023-05-01T02:42:40.194Z,99496.16
2023-05-01T02:45:16.935Z,99501.38
2023-05-01T02:47:47.259Z,99513.63
2023-05-01T02:50:20.181Z,99515.34
2023-05-01T02:52:50.266Z,99517.03
2023-05-01T02:55:40.438Z,99509.06
2023-05-01T02:58:10.186Z,99518.72
2023-05-01T03:00:39.875Z,99524.84
2023-05-01T03:03:09.728Z,99522.28
2023-05-01T03:05:42.117Z,99522.28
2023-05-01T03:08:12.915Z,99516.25
2023-05-01T03:10:43.380Z,99523.22
2023-05-01T03:13:13.225Z,99507.47
2023-05-01T03:15:43.419Z,99510.94
2023-05-01T03:18:13.310Z,99528.53
2023-05-01T03:20:54.219Z,99532.16
2023-05-01T03:23:24.484Z,99529.53
2023-05-01T03:25:55.004Z,99533.00
2023-05-01T03:28:25.664Z,99527.75
2023-05-01T03:30:56.236Z,99534.78
2023-05-01T03:33:26.851Z,99533.84
2023-05-01T03:36:05.801Z,99537.41
2023-05-01T03:38:37.182Z,99536.66
2023-05-01T03:41:12.766Z,99543.59
2023-05-01T03:44:02.399Z,99533.16
2023-05-01T03:46:36.811Z,99538.41
2023-05-01T03:49:08.163Z,99542.81
2023-05-01T03:51:47.676Z,99552.53
2023-05-01T03:54:17.541Z,99553.53
2023-05-01T03:57:00.661Z,99553.63
2023-05-01T03:59:30.428Z,99572.00
2023-05-01T04:02:00.231Z,99633.22
2023-05-01T04:04:33.357Z,99586.97
2023-05-01T04:07:06.057Z,99574.69
2023-05-01T04:09:36.028Z,99573.78
2023-05-01T04:12:05.905Z,99583.41
2023-05-01T04:14:35.864Z,99575.63
2023-05-01T04:17:05.887Z,99581.72
2023-05-01T04:19:38.817Z,99599.25
2023-05-01T04:22:11.224Z,99608.91
2023-05-01T04:24:42.355Z,99611.53
2023-05-01T04:27:12.047Z,99619.41
2023-05-01T04:29:41.893Z,99615.00
2023-05-01T04:32:12.107Z,99625.41
2023-05-01T04:34:41.785Z,99625.41
2023-05-01T04:37:14.474Z,99633.31
2023-05-01T04:39:45.026Z,99635.84
2023-05-01T04:42:15.099Z,99654.22
2023-05-01T04:44:45.002Z,99655.06
2023-05-01T04:47:15.785Z,99665.56
2023-05-01T04:49:45.504Z,99676.84
2023-05-01T04:52:18.087Z,99671.50
2023-05-01T04:54:58.159Z,99676.72
2023-05-01T04:57:30.332Z,99681.03
2023-05-01T05:00:00.604Z,99688.00
2023-05-01T05:02:30.345Z,99697.56
2023-05-01T05:05:00.105Z,99700.03
2023-05-01T05:07:32.396Z,99713.97
2023-05-01T05:10:25.173Z,99702.31
2023-05-01T05:13:10.356Z,99715.31
2023-05-01T05:15:41.787Z,99709.81
2023-05-01T05:18:13.577Z,99720.28
2023-05-01T05:20:43.415Z,99721.81
2023-05-01T05:23:15.744Z,99722.53
2023-05-01T05:25:45.517Z,99736.47
2023-05-01T05:28:15.172Z,99740.63
2023-05-01T05:30:47.083Z,99762.38
2023-05-01T05:33:20.030Z,99768.31
2023-05-01T05:35:49.835Z,99797.00
2023-05-01T05:38:22.311Z,99779.31
2023-05-01T05:40:56.708Z,99783.38
2023-05-01T05:43:28.276Z,99786.59
2023-05-01T05:46:02.386Z,99789.69
2023-05-01T05:48:35.199Z,99766.59
2023-05-01T05:51:05.157Z,99764.44
2023-05-01T05:53:37.565Z,99752.69
2023-05-01T05:56:07.850Z,99752.38
2023-05-01T05:58:37.851Z,99724.84
2023-05-01T06:01:09.435Z,99716.56
2023-05-01T06:03:40.606Z,99695.22
2023-05-01T06:06:11.404Z,99690.56
2023-05-01T06:08:46.372Z,99687.59
2023-05-01T06:11:16.593Z,99684.56
2023-05-01T06:13:46.805Z,99668.47
2023-05-01T06:16:17.067Z,99653.19
2023-05-01T06:18:46.954Z,99627.41
2023-05-01T06:21:16.753Z,99611.19
2023-05-01T06:23:49.466Z,99588.75
2023-05-01T06:26:26.299Z,99572.53
2023-05-01T06:28:56.453Z,99564.22
2023-05-01T06:31:27.333Z,99554.94
2023-05-01T06:33:58.647Z,99533.31
2023-05-01T06:36:51.288Z,99526.69
2023-05-01T06:39:23.933Z,99517.38
2023-05-01T06:41:53.652Z,99507.22
2023-05-01T06:44:33.315Z,99486.47
2023-05-01T06:47:04.748Z,99478.00
2023-05-01T06:49:34.476Z,99429.19
2023-05-01T06:52:04.352Z,99413.63
2023-05-01T06:54:36.671Z,99398.91
2023-05-01T06:57:06.515Z,99395.69
2023-05-01T06:59:36.978Z,99394.16
2023-05-01T07:02:06.743Z,99371.44
2023-05-01T07:04:36.540Z,99367.34
2023-05-01T07:07:06.238Z,99352.50
2023-05-01T07:09:38.916Z,99315.81
2023-05-01T07:12:08.949Z,99261.31
2023-05-01T07:14:38.853Z,99225.22
2023-05-01T07:17:09.265Z,99201.53
2023-05-01T07:19:39.629Z,99202.47
2023-05-01T07:22:09.257Z,99194.66
2023-05-01T07:24:41.523Z,99187.56
2023-05-01T07:27:11.230Z,99153.47
2023-05-01T07:29:41.549Z,99104.28
2023-05-01T07:32:11.254Z,99056.50
2023-05-01T07:34:41.116Z,98981.97
2023-05-01T07:37:11.000Z,98914.94
2023-05-01T07:39:43.377Z,98894.72
2023-05-01T07:42:13.086Z,98886.91
2023-05-01T07:44:42.835Z,98880.91
2023-05-01T07:47:12.533Z,98883.66
2023-05-01T07:49:42.222Z,98893.50
2023-05-01T07:52:11.829Z,98894.44
2023-05-01T07:54:44.634Z,98903.44
2023-05-01T07:57:14.616Z,98915.84
2023-05-01T07:59:44.289Z,98938.94
2023-05-01T08:02:14.124Z,98956.44
2023-05-01T08:04:46.233Z,98984.59
2023-05-01T08:07:16.002Z,98978.41
2023-05-01T08:09:49.080Z,98998.50
2023-05-01T08:12:18.874Z,99024.94
2023-05-01T08:14:48.586Z,99026.53
2023-05-01T08:17:18.295Z,99020.66
2023-05-01T08:19:48.008Z,99013.63
2023-05-01T08:22:17.657Z,99031.44
2023-05-01T08:24:49.917Z,99073.09
2023-05-01T08:27:19.651Z,99079.19
2023-05-01T08:29:49.899Z,99089.28
2023-05-01T08:32:21.638Z,99110.84
2023-05-01T08:34:51.387Z,99111.03
2023-05-01T08:37:21.200Z,99120.38
2023-05-01T08:39:54.018Z,99083.41
2023-05-01T08:42:24.369Z,99088.41
2023-05-01T08:44:59.405Z,99132.78
2023-05-01T08:47:30.598Z,99149.78
2023-05-01T08:50:00.828Z,99167.59
2023-05-01T08:52:31.892Z,99197.03
2023-05-01T08:55:05.346Z,99209.66
2023-05-01T08:57:35.530Z,99187.69
2023-05-01T09:00:07.369Z,99206.47
2023-05-01T09:02:38.026Z,99226.09
2023-05-01T09:05:09.496Z,99256.94
2023-05-01T09:07:39.945Z,99279.47
2023-05-01T09:10:13.073Z,99283.59
2023-05-01T09:12:45.024Z,99292.84
2023-05-01T09:15:15.465Z,99320.50
2023-05-01T09:17:45.825Z,99371.94
2023-05-01T09:20:15.606Z,99405.88
2023-05-01T09:22:45.767Z,99462.25
2023-05-01T09:25:18.339Z,99497.91
2023-05-01T09:27:48.777Z,99503.53
2023-05-01T09:30:34.510Z,99545.09
2023-05-01T09:33:08.743Z,99605.72
2023-05-01T09:35:56.187Z,99665.13
2023-05-01T09:38:27.964Z,99671.69
2023-05-01T09:41:07.339Z,99666.97
2023-05-01T09:43:37.183Z,99678.34
2023-05-01T09:46:09.788Z,99670.47
2023-05-01T09:48:42.717Z,99650.78
2023-05-01T09:51:27.134Z,99684.63
2023-05-01T09:53:58.718Z,99715.16
2023-05-01T09:56:33.286Z,99746.34
2023-05-01T09:59:18.104Z,99766.91
2023-05-01T10:01:50.651Z,99794.22
2023-05-01T10:04:20.658Z,99788.19
2023-05-01T10:06:50.612Z,99775.31
2023-05-01T10:09:30.516Z,99837.88
2023-05-01T10:12:03.560Z,99788.31
2023-05-01T10:14:38.555Z,99787.59
2023-05-01T10:17:20.943Z,99841.44
2023-05-01T10:19:51.565Z,99838.38
2023-05-01T10:22:22.069Z,99873.28
2023-05-01T10:24:52.371Z,99813.50
2023-05-01T10:27:26.183Z,99879.06
2023-05-01T10:29:56.961Z,99880.06
2023-05-01T10:32:26.907Z,99853.75
2023-05-01T10:35:00.851Z,99811.81
2023-05-01T10:37:36.298Z,99842.91
2023-05-01T10:40:35.845Z,99859.25
2023-05-01T10:43:26.096Z,99953.84
2023-05-01T10:45:56.620Z,99982.13
2023-05-01T10:48:56.784Z,99921.06
2023-05-01T10:51:28.420Z,99878.22
2023-05-01T10:54:29.006Z,99925.13
2023-05-01T10:57:01.404Z,99960.06
2023-05-01T11:00:11.351Z,99995.28
2023-05-01T11:02:43.720Z,100012.59
2023-05-01T11:05:13.494Z,100029.47
2023-05-01T11:07:43.144Z,100008.22
2023-05-01T11:10:30.349Z,100009.34
2023-05-01T11:13:00.110Z,100089.09
2023-05-01T11:15:31.367Z,100062.75
2023-05-01T11:18:06.181Z,100047.53
2023-05-01T11:20:52.186Z,100108.28
2023-05-01T11:23:27.434Z,100137.28
2023-05-01T11:26:10.198Z,100172.84
2023-05-01T11:28:41.440Z,100181.97
2023-05-01T11:31:11.683Z,100184.25
2023-05-01T11:33:44.054Z,100208.50
2023-05-01T11:36:14.256Z,100217.25
2023-05-01T11:38:52.758Z,100194.56
2023-05-01T11:41:23.818Z,100169.19
2023-05-01T11:43:54.300Z,100165.94
2023-05-01T11:46:28.000Z,100179.75
2023-05-01T11:49:01.977Z,100217.81
2023-05-01T11:51:32.611Z,100248.13
2023-05-01T11:54:03.232Z,100224.69
2023-05-01T11:56:33.678Z,100220.03
2023-05-01T11:59:12.610Z,100209.00
2023-05-01T12:01:44.590Z,100245.63
2023-05-01T12:04:28.804Z,100270.50
2023-05-01T12:07:01.330Z,100273.94
2023-05-01T12:09:31.481Z,100270.69
2023-05-01T12:12:03.474Z,100281.75
2023-05-01T12:14:33.299Z,100282.53
2023-05-01T12:17:04.185Z,100258.75
2023-05-01T12:19:37.705Z,100282.34
2023-05-01T12:22:10.584Z,100227.16
2023-05-01T12:24:40.487Z,100237.53
2023-05-01T12:27:10.654Z,100194.88
2023-05-01T12:29:44.859Z,100163.03
2023-05-01T12:32:14.636Z,100209.75
2023-05-01T12:34:46.999Z,100204.78
2023-05-01T12:37:17.140Z,100222.66
2023-05-01T12:39:47.692Z,100204.94
2023-05-01T12:42:18.788Z,100167.50
2023-05-01T12:44:48.715Z,100173.84
2023-05-01T12:47:18.429Z,100203.38
2023-05-01T12:49:50.717Z,100229.00
2023-05-01T12:52:29.701Z,100245.03
2023-05-01T12:55:05.756Z,100238.56
2023-05-01T12:57:35.571Z,100247.56
2023-05-01T13:00:07.648Z,100227.78
2023-05-01T13:02:37.487Z,100196.84
2023-05-01T13:05:12.499Z,100198.56
2023-05-01T13:07:42.753Z,100227.53
2023-05-01T13:10:14.011Z,100241.25
2023-05-01T13:12:47.545Z,100209.34
2023-05-01T13:15:23.790Z,100206.13
2023-05-01T13:17:54.149Z,100213.66
2023-05-01T13:20:30.873Z,100213.00
2023-05-01T13:23:00.581Z,100230.34
2023-05-01T13:25:30.246Z,100258.41
2023-05-01T13:27:59.975Z,100261.53
2023-05-01T13:30:35.206Z,100264.06
2023-05-01T13:33:07.924Z,100258.41
2023-05-01T13:35:41.921Z,100269.81
2023-05-01T13:38:14.178Z,100287.53
2023-05-01T13:40:43.945Z,100289.84
2023-05-01T13:43:17.140Z,100292.16
2023-05-01T13:45:47.470Z,100300.28
2023-05-01T13:48:19.972Z,100316.34
2023-05-01T13:50:52.463Z,100298.34
2023-05-01T13:53:22.114Z,100306.53
2023-05-01T13:55:51.783Z,100317.75
2023-05-01T13:58:21.526Z,100329.13
2023-05-01T14:00:51.513Z,100327.28
2023-05-01T14:03:22.262Z,100325.66
2023-05-01T14:05:54.848Z,100324.78
2023-05-01T14:08:29.806Z,100316.91
2023-05-01T14:11:01.523Z,100318.81
2023-05-01T14:13:31.418Z,100308.75
2023-05-01T14:16:01.184Z,100303.47
2023-05-01T14:18:30.884Z,100298.78
2023-05-01T14:21:04.581Z,100304.25
2023-05-01T14:23:35.127Z,100293.81
2023-05-01T14:26:05.404Z,100285.91
2023-05-01T14:28:35.123Z,100279.53
2023-05-01T14:31:04.871Z,100280.16
2023-05-01T14:33:34.557Z,100277.00
2023-05-01T14:36:07.129Z,100272.78
2023-05-01T14:38:39.396Z,100280.59
2023-05-01T14:41:11.208Z,100290.69
2023-05-01T14:43:44.484Z,100295.66
2023-05-01T14:46:15.319Z,100305.00
2023-05-01T14:48:45.545Z,100298.94
2023-05-01T14:51:22.243Z,100323.97
2023-05-01T14:53:51.985Z,100334.16
2023-05-01T14:56:21.777Z,100344.13
2023-05-01T14:58:52.259Z,100343.50
2023-05-01T15:01:22.117Z,100353.59
2023-05-01T15:03:53.289Z,100361.75
2023-05-01T15:06:26.466Z,100345.59
2023-05-01T15:08:56.592Z,100337.72
2023-05-01T15:11:26.377Z,100270.25
2023-05-01T15:13:57.277Z,100231.06
2023-05-01T15:16:27.687Z,100207.81
2023-05-01T15:18:57.611Z,100163.06
2023-05-01T15:21:29.864Z,100135.31
2023-05-01T15:23:59.742Z,100102.84
2023-05-01T15:26:29.591Z,100068.56
2023-05-01T15:28:59.280Z,100040.22
2023-05-01T15:31:30.760Z,100025.56
2023-05-01T15:34:01.773Z,99954.13
2023-05-01T15:36:34.933Z,99909.84
2023-05-01T15:39:06.174Z,99875.13
2023-05-01T15:41:36.527Z,99870.28
2023-05-01T15:44:08.038Z,99834.53
2023-05-01T15:46:37.959Z,99801.88
2023-05-01T15:49:10.399Z,99769.91
2023-05-01T15:51:42.687Z,99765.31
2023-05-01T15:54:12.462Z,99753.22
2023-05-01T15:56:42.136Z,99732.63
2023-05-01T15:59:13.564Z,99717.78
2023-05-01T16:01:43.385Z,99694.84
2023-05-01T16:04:13.254Z,99690.44
2023-05-01T16:06:46.202Z,99696.25
2023-05-01T16:09:16.131Z,99687.91
2023-05-01T16:11:45.798Z,99674.63
2023-05-01T16:14:18.465Z,99676.00
2023-05-01T16:16:48.299Z,99661.56
2023-05-01T16:19:19.081Z,99674.25
2023-05-01T16:21:51.493Z,99663.66
2023-05-01T16:24:21.277Z,99689.78
2023-05-01T16:26:51.034Z,99676.47
2023-05-01T16:29:21.726Z,99665.22
2023-05-01T16:31:51.424Z,99654.34
2023-05-01T16:34:27.106Z,99657.38
2023-05-01T16:36:59.383Z,99663.41
2023-05-01T16:39:29.057Z,99647.00
2023-05-01T16:41:58.849Z,99655.69
2023-05-01T16:44:28.541Z,99651.47
2023-05-01T16:46:59.270Z,99687.69
2023-05-01T16:49:30.063Z,99715.28
2023-05-01T16:52:04.030Z,99710.06
2023-05-01T16:54:36.293Z,99719.03
2023-05-01T16:57:06.242Z,99756.41
2023-05-01T16:59:37.110Z,99742.63
2023-05-01T17:02:07.643Z,99791.41
2023-05-01T17:04:37.551Z,99795.06
2023-05-01T17:07:10.117Z,99801.69
2023-05-01T17:09:39.845Z,99819.59
2023-05-01T17:12:09.464Z,99791.91
2023-05-01T17:14:39.129Z,99784.41
2023-05-01T17:17:09.535Z,99772.81
2023-05-01T17:19:39.738Z,99729.16
2023-05-01T17:22:12.381Z,99760.59
2023-05-01T17:24:42.129Z,99779.34
2023-05-01T17:27:12.437Z,99769.06
2023-05-01T17:29:42.236Z,99780.66
2023-05-01T17:34:42.038Z,99821.63
2023-05-01T17:37:15.443Z,99842.44
2023-05-01T17:39:45.272Z,99851.53
2023-05-01T17:42:14.917Z,99847.19
2023-05-01T17:44:44.670Z,99828.75
2023-05-01T17:47:14.416Z,99846.56
2023-05-01T17:49:44.127Z,99845.25
2023-05-01T17:52:16.470Z,99858.31
2023-05-01T17:54:46.244Z,99825.50
2023-05-01T17:57:16.008Z,99809.53
2023-05-01T17:59:45.726Z,99790.81
2023-05-01T18:02:15.591Z,99785.94
2023-05-01T18:04:46.080Z,99785.91
2023-05-01T18:07:18.378Z,99807.69
2023-05-01T18:09:48.124Z,99812.16
2023-05-01T18:12:17.841Z,99806.50
2023-05-01T18:14:47.530Z,99798.78
2023-05-01T18:17:17.281Z,99790.91
2023-05-01T18:19:46.986Z,99776.53
2023-05-01T18:22:19.320Z,99765.78
2023-05-01T18:24:49.505Z,99774.38
2023-05-01T18:27:19.547Z,99761.31
2023-05-01T18:29:49.168Z,99743.06
2023-05-01T18:32:18.974Z,99719.63
2023-05-01T18:34:51.453Z,99705.00
2023-05-01T18:37:25.910Z,99693.28
2023-05-01T18:39:55.627Z,99684.91
2023-05-01T18:42:25.353Z,99667.50
2023-05-01T18:44:56.874Z,99668.84
2023-05-01T18:47:26.902Z,99658.44
2023-05-01T18:49:56.661Z,99636.59
2023-05-01T18:52:28.992Z,99620.03
2023-05-01T18:54:59.197Z,99588.66
2023-05-01T18:57:30.225Z,99584.78
2023-05-01T19:00:01.416Z,99563.03
2023-05-01T19:02:31.709Z,99541.31
2023-05-01T19:05:01.443Z,99526.00
2023-05-01T19:07:33.837Z,99495.44
2023-05-01T19:10:03.808Z,99472.16
2023-05-01T19:12:33.500Z,99466.47
2023-05-01T19:15:03.384Z,99444.03
2023-05-01T19:17:34.143Z,99412.56
2023-05-01T19:20:04.737Z,99396.28
2023-05-01T19:22:37.238Z,99372.88
2023-05-01T19:25:08.398Z,99352.25
2023-05-01T19:27:38.105Z,99363.34
2023-05-01T19:30:09.148Z,99353.13
2023-05-01T19:32:39.033Z,99344.91
2023-05-01T19:35:11.355Z,99322.22
2023-05-01T19:37:43.720Z,99318.97
2023-05-01T19:40:14.465Z,99315.00
2023-05-01T19:42:44.479Z,99302.09
2023-05-01T19:45:17.070Z,99274.13
2023-05-01T19:47:48.225Z,99276.19
2023-05-01T19:50:20.277Z,99267.63
2023-05-01T19:52:52.588Z,99242.31
2023-05-01T19:55:22.635Z,99230.03
2023-05-01T19:57:52.775Z,99219.66
2023-05-01T20:00:22.964Z,99199.69
2023-05-01T20:02:53.031Z,99185.94
2023-05-01T20:05:28.086Z,99181.25
2023-05-01T20:08:01.048Z,99174.50
2023-05-01T20:10:30.832Z,99162.31
2023-05-01T20:13:00.505Z,99156.56
2023-05-01T20:15:30.410Z,99154.16
2023-05-01T20:18:00.238Z,99137.66
2023-05-01T20:20:30.487Z,99125.72
2023-05-01T20:23:15.409Z,99118.38
2023-05-01T20:25:46.530Z,99117.69
2023-05-01T20:28:17.015Z,99102.88
2023-05-01T20:30:48.024Z,99091.53
2023-05-01T20:33:18.214Z,99085.66
2023-05-01T20:35:47.979Z,99080.72
2023-05-01T20:38:20.295Z,99086.97
2023-05-01T20:40:50.807Z,99085.56
2023-05-01T20:43:20.475Z,99097.22
2023-05-01T20:45:50.370Z,99087.84
2023-05-01T20:48:20.147Z,99079.28
2023-05-01T20:50:49.999Z,99089.25
2023-05-01T20:53:22.494Z,99076.25
2023-05-01T20:55:52.716Z,99078.41
2023-05-01T20:58:22.500Z,99071.66
2023-05-01T21:00:52.216Z,99070.34
2023-05-01T21:03:21.892Z,99060.94
2023-05-01T21:05:51.630Z,99047.25
2023-05-01T21:08:24.059Z,99039.78
2023-05-01T21:10:53.859Z,99032.91
2023-05-01T21:13:24.940Z,99041.22
2023-05-01T21:15:55.221Z,99041.56
2023-05-01T21:18:24.962Z,99024.25
2023-05-01T21:20:54.858Z,99029.66
2023-05-01T21:23:28.822Z,99027.38
2023-05-01T21:25:58.586Z,99026.28
2023-05-01T21:28:28.372Z,99014.84
2023-05-01T21:30:58.160Z,99014.22
2023-05-01T21:33:28.587Z,98995.13
2023-05-01T21:35:58.212Z,98999.91
2023-05-01T21:38:31.374Z,98995.81
2023-05-01T21:41:01.107Z,98990.88
2023-05-01T21:43:31.003Z,98988.47
2023-05-01T21:46:00.819Z,98981.84
2023-05-01T21:48:30.689Z,98979.56
2023-05-01T21:51:00.774Z,98975.47
2023-05-01T21:53:35.177Z,98984.59
2023-05-01T21:56:05.206Z,98971.47
2023-05-01T21:58:35.076Z,98958.63
2023-05-01T22:01:04.853Z,98967.13
2023-05-01T22:03:34.879Z,98971.69
2023-05-01T22:06:05.086Z,98976.34
2023-05-01T22:08:37.450Z,98973.84
2023-05-01T22:11:08.528Z,98968.66
2023-05-01T22:13:38.370Z,98974.91
2023-05-01T22:16:09.053Z,98968.78
2023-05-01T22:18:38.819Z,98975.03
2023-05-01T22:21:08.659Z,98980.31
2023-05-01T22:23:40.981Z,98985.69
2023-05-01T22:26:10.704Z,99009.59
2023-05-01T22:28:40.431Z,99013.91
2023-05-01T22:31:10.173Z,99030.00
2023-05-01T22:33:40.580Z,99053.78
2023-05-01T22:36:10.451Z,99061.72
2023-05-01T22:38:42.773Z,99082.84
2023-05-01T22:41:12.661Z,99097.97
2023-05-01T22:43:42.301Z,99111.25
2023-05-01T22:46:12.008Z,99122.03
2023-05-01T22:48:41.745Z,99132.84
2023-05-01T22:51:11.436Z,99150.69
2023-05-01T22:53:43.750Z,99162.31
2023-05-01T22:56:13.623Z,99173.84
2023-05-01T22:58:43.376Z,99184.72
2023-05-01T23:01:13.414Z,99187.59
2023-05-01T23:03:43.399Z,99191.31
2023-05-01T23:06:13.155Z,99201.00
2023-05-01T23:08:45.520Z,99215.25
2023-05-01T23:11:18.988Z,99227.75
2023-05-01T23:13:50.062Z,99233.03
2023-05-01T23:16:20.117Z,99237.34
2023-05-01T23:18:49.901Z,99243.47
2023-05-01T23:21:21.648Z,99255.72
2023-05-01T23:23:54.437Z,99255.72
2023-05-01T23:26:27.211Z,99267.13
2023-05-01T23:28:56.977Z,99268.91
2023-05-01T23:31:28.242Z,99269.75
2023-05-01T23:33:58.257Z,99267.00
2023-05-01T23:36:28.262Z,99272.28
2023-05-01T23:39:00.538Z,99271.38
2023-05-01T23:41:31.398Z,99272.28
2023-05-01T23:44:01.146Z,99276.00
2023-05-01T23:46:31.406Z,99282.25
2023-05-01T23:49:01.113Z,99286.78
2023-05-01T23:51:31.551Z,99284.34
2023-05-01T23:54:04.447Z,99288.16
2023-05-01T23:56:34.317Z,99290.13
2023-05-01T23:59:04.222Z,99290.34
